Time;durP1;ratioP1;P1;durP2;ratioP2;P2;SDS_P1;SDS_P2;PMS_P1;PMS_P2;Temp;Humidity;BMP_temperature;BMP_pressure;BME280_temperature;BME280_humidity;BME280_pressure;Samples;Min_cycle;Max_cycle;Signal;HPM_P1;HPM_P2
2022/05/23 00:01:05;;;;;;;4.57;3.63;;;14.90;91.70;;;;;;4190924;28;20063;-62
2022/05/23 00:03:06;;;;;;;6.20;1.30;;;15.00;91.40;;;;;;4189593;28;20484;-62
2022/05/23 00:05:08;;;;;;;1.38;1.00;;;15.00;91.30;;;;;;4191268;28;20024;-61
2022/05/23 00:07:29;;;;;;;4.35;0.80;;;15.00;91.10;;;;;;4189174;28;20192;-62
2022/05/23 00:09:30;;;;;;;1.67;1.20;;;15.00;90.80;;;;;;4174134;28;20033;-62
2022/05/23 00:11:32;;;;;;;2.75;1.20;;;14.90;90.80;;;;;;4172904;28;20036;-62
2022/05/23 00:13:34;;;;;;;2.63;0.80;;;14.90;90.60;;;;;;4174241;28;20107;-63
2022/05/23 00:15:35;;;;;;;1.53;0.50;;;14.90;90.60;;;;;;4172808;28;20067;-62
2022/05/23 00:17:36;;;;;;;1.67;0.70;;;14.90;90.30;;;;;;4173312;28;20428;-61
2022/05/23 00:19:40;;;;;;;3.17;0.70;;;14.90;90.30;;;;;;4173292;28;20078;-62
2022/05/23 00:21:47;;;;;;;2.20;0.70;;;14.90;90.20;;;;;;4173605;28;20083;-61
2022/05/23 00:23:48;;;;;;;2.30;0.68;;;14.80;90.20;;;;;;4184662;28;20451;-61
2022/05/23 00:25:49;;;;;;;0.90;0.60;;;14.80;90.20;;;;;;4189025;28;20044;-61
2022/05/23 00:27:50;;;;;;;2.07;0.90;;;14.80;90.20;;;;;;4189590;28;20554;-62
2022/05/23 00:29:52;;;;;;;2.00;0.60;;;14.70;90.00;;;;;;4188253;28;20145;-61
2022/05/23 00:36:33;;;;;;;4.43;0.80;;;14.70;90.40;;;;;;4184585;28;20045;-62
2022/05/23 00:38:34;;;;;;;1.23;0.55;;;14.60;90.50;;;;;;4188840;28;20517;-61
2022/05/23 00:40:48;;;;;;;1.43;0.80;;;14.50;90.60;;;;;;4189614;28;20094;-62
2022/05/23 00:45:13;;;;;;;2.33;1.13;;;14.40;90.70;;;;;;4189956;28;20024;-62
2022/05/23 00:47:21;;;;;;;2.03;0.77;;;14.30;90.80;;;;;;4187231;28;20094;-61
2022/05/23 00:49:26;;;;;;;2.07;0.80;;;14.30;90.90;;;;;;4189810;28;20024;-61
2022/05/23 00:51:28;;;;;;;1.13;0.60;;;14.20;90.90;;;;;;4173136;28;20045;-61
2022/05/23 00:53:46;;;;;;;5.40;0.97;;;14.20;91.00;;;;;;4173331;28;20028;-61
2022/05/23 00:55:48;;;;;;;3.13;0.80;;;14.10;91.00;;;;;;4171627;28;20086;-61
2022/05/23 00:57:52;;;;;;;1.53;0.50;;;14.00;91.20;;;;;;4173796;28;20079;-61
2022/05/23 00:59:54;;;;;;;1.93;0.93;;;14.00;91.40;;;;;;4172375;28;20070;-62
2022/05/23 01:01:57;;;;;;;2.47;1.00;;;13.80;91.50;;;;;;4173495;28;20094;-61
2022/05/23 01:03:58;;;;;;;2.00;0.70;;;13.80;91.70;;;;;;4172382;28;20037;-62
2022/05/23 01:05:59;;;;;;;1.03;0.57;;;13.80;91.70;;;;;;4173110;28;20041;-62
2022/05/23 01:08:00;;;;;;;1.37;0.70;;;13.70;91.70;;;;;;4171422;28;20033;-61
2022/05/23 01:10:04;;;;;;;1.60;1.00;;;13.70;91.80;;;;;;4173397;28;20056;-62
2022/05/23 01:12:05;;;;;;;4.00;1.23;;;13.60;91.70;;;;;;4172164;28;20040;-61
2022/05/23 01:14:07;;;;;;;3.63;0.83;;;13.60;91.70;;;;;;4173048;28;20102;-62
2022/05/23 01:16:11;;;;;;;2.63;0.53;;;13.60;91.70;;;;;;4172123;28;20045;-63
2022/05/23 01:18:12;;;;;;;1.13;0.60;;;13.60;91.60;;;;;;4173102;28;20082;-62
2022/05/23 01:20:14;;;;;;;1.87;1.30;;;13.60;91.50;;;;;;4172110;28;20037;-62
2022/05/23 01:22:25;;;;;;;3.03;1.10;;;13.60;91.50;;;;;;4173083;28;20036;-62
2022/05/23 01:25:07;;;;;;;4.03;0.70;;;13.70;91.50;;;;;;4172478;28;20025;-62
2022/05/23 01:27:08;;;;;;;2.60;0.60;;;13.60;91.50;;;;;;4175135;28;20103;-62
2022/05/23 01:29:14;;;;;;;3.57;1.37;;;13.60;91.40;;;;;;4188270;28;20385;-61
2022/05/23 01:31:16;;;;;;;1.63;0.80;;;13.60;91.50;;;;;;4189594;28;20044;-61
2022/05/23 01:33:17;;;;;;;3.83;1.07;;;13.60;91.50;;;;;;4188258;28;20036;-61
2022/05/23 01:35:18;;;;;;;0.87;0.50;;;13.60;91.60;;;;;;4188412;28;20086;-62
2022/05/23 01:37:20;;;;;;;1.53;0.60;;;13.60;91.60;;;;;;4187856;28;20965;-62
2022/05/23 01:39:21;;;;;;;2.60;0.83;;;13.70;91.60;;;;;;4189019;28;20075;-61
2022/05/23 01:41:22;;;;;;;2.63;0.83;;;13.70;91.60;;;;;;4189044;28;20070;-61
2022/05/23 01:43:24;;;;;;;1.80;0.50;;;13.80;91.60;;;;;;4188423;28;20078;-62
2022/05/23 01:45:29;;;;;;;2.00;0.80;;;13.80;91.50;;;;;;4189377;28;20044;-61
2022/05/23 01:47:31;;;;;;;0.90;0.53;;;13.90;91.50;;;;;;4186562;28;20052;-60
2022/05/23 01:49:32;;;;;;;1.97;0.70;;;13.90;91.40;;;;;;4189569;28;20040;-61
2022/05/23 01:51:36;;;;;;;1.23;0.80;;;13.90;91.40;;;;;;4188105;28;20074;-62
2022/05/23 01:53:37;;;;;;;2.33;1.27;;;13.90;91.40;;;;;;4181024;28;20037;-62
2022/05/23 01:55:38;;;;;;;1.93;0.90;;;14.00;91.30;;;;;;4180680;28;20032;-62
2022/05/23 01:57:39;;;;;;;1.63;0.70;;;14.00;91.20;;;;;;4180557;28;20447;-62
2022/05/23 02:02:00;;;;;;;1.67;0.68;;;14.00;91.00;;;;;;4180604;28;20378;-62
2022/05/23 02:04:02;;;;;;;2.00;0.47;;;14.00;90.90;;;;;;4171774;28;20045;-62
2022/05/23 02:06:03;;;;;;;1.40;0.60;;;14.00;90.80;;;;;;4179712;28;20044;-63
2022/05/23 02:08:04;;;;;;;0.90;0.40;;;14.10;90.70;;;;;;4173456;28;20533;-63
2022/05/23 02:10:06;;;;;;;4.50;0.50;;;14.10;90.50;;;;;;4177317;28;20480;-62
2022/05/23 02:12:08;;;;;;;1.73;0.50;;;14.00;90.50;;;;;;4178539;28;20045;-63
2022/05/23 02:14:10;;;;;;;1.60;0.60;;;14.00;90.50;;;;;;4176791;28;20074;-62
2022/05/23 02:16:11;;;;;;;1.67;0.60;;;14.00;90.50;;;;;;4169939;28;20687;-60
2022/05/23 02:18:12;;;;;;;0.83;0.47;;;14.00;90.50;;;;;;4172081;28;20028;-63
2022/05/23 02:20:14;;;;;;;1.27;0.40;;;14.00;90.50;;;;;;4174650;28;20489;-62
2022/05/23 02:22:15;;;;;;;1.83;0.57;;;14.00;90.50;;;;;;4178228;28;21696;-61
2022/05/23 02:24:17;;;;;;;2.60;0.50;;;13.90;90.50;;;;;;4175259;28;20087;-62
2022/05/23 02:26:18;;;;;;;2.60;0.60;;;13.90;90.50;;;;;;4173911;28;20041;-61
2022/05/23 02:28:20;;;;;;;1.03;0.40;;;13.80;90.40;;;;;;4176564;28;20516;-61
2022/05/23 02:30:21;;;;;;;3.63;0.70;;;13.80;90.50;;;;;;4176274;28;20090;-62
2022/05/23 02:32:22;;;;;;;0.60;0.57;;;13.80;90.40;;;;;;4180156;28;20025;-60
2022/05/23 02:34:23;;;;;;;3.67;0.70;;;13.80;90.50;;;;;;4171201;28;20041;-61
2022/05/23 02:36:25;;;;;;;4.13;0.93;;;13.80;90.50;;;;;;4174963;28;20037;-61
2022/05/23 02:38:26;;;;;;;1.90;0.73;;;13.80;90.50;;;;;;4173373;28;20101;-61
2022/05/23 02:40:27;;;;;;;1.70;0.57;;;13.80;90.40;;;;;;4176323;28;20037;-61
2022/05/23 02:42:28;;;;;;;1.37;0.50;;;13.80;90.50;;;;;;4169138;28;20037;-61
2022/05/23 02:44:29;;;;;;;3.90;0.97;;;13.80;90.50;;;;;;4175404;28;20067;-63
2022/05/23 02:46:30;;;;;;;3.33;0.43;;;13.80;90.50;;;;;;4177310;28;20040;-61
2022/05/23 02:48:31;;;;;;;1.57;0.40;;;13.80;90.60;;;;;;4179775;28;20501;-61
2022/05/23 02:50:33;;;;;;;3.20;0.70;;;13.80;90.60;;;;;;4175769;28;20837;-61
2022/05/23 02:52:34;;;;;;;2.00;0.50;;;13.80;90.70;;;;;;4182036;28;20044;-62
2022/05/23 02:54:35;;;;;;;1.87;1.30;;;13.70;90.80;;;;;;4179650;28;20492;-63
2022/05/23 02:56:36;;;;;;;2.13;0.97;;;13.80;90.90;;;;;;4174042;28;20487;-62
2022/05/23 02:58:39;;;;;;;3.43;0.90;;;13.90;90.90;;;;;;4175096;28;20770;-61
2022/05/23 03:00:40;;;;;;;2.53;0.63;;;14.10;90.80;;;;;;4172312;28;20580;-62
2022/05/23 03:05:01;;;;;;;3.83;0.80;;;14.40;90.60;;;;;;4172733;28;20563;-62
2022/05/23 03:07:02;;;;;;;2.83;0.53;;;14.70;90.20;;;;;;4177368;28;20041;-62
2022/05/23 03:09:03;;;;;;;5.07;0.60;;;14.90;89.80;;;;;;4172426;28;20059;-61
2022/05/23 03:11:08;;;;;;;7.63;1.57;;;15.20;89.10;;;;;;4176963;28;20048;-61
2022/05/23 03:13:09;;;;;;;3.00;0.50;;;15.50;88.40;;;;;;4180431;28;20054;-61
2022/05/23 03:15:12;;;;;;;2.53;0.57;;;15.80;87.40;;;;;;4180015;28;20040;-62
2022/05/23 03:17:14;;;;;;;1.00;0.50;;;15.90;86.90;;;;;;4176027;28;20106;-61
2022/05/23 03:19:15;;;;;;;0.77;0.40;;;15.90;87.00;;;;;;4175993;28;20048;-63
2022/05/23 03:26:58;;;;;;;1.07;0.40;;;16.10;86.80;;;;;;4178077;28;20041;-62
2022/05/23 03:28:20;;;;;;;0.70;0.30;;;17.00;85.40;;;;;;4175737;28;20448;-61
2022/05/23 03:30:21;;;;;;;1.05;0.70;;;17.30;84.90;;;;;;4173726;28;22050;-62
2022/05/23 03:32:23;;;;;;;1.30;0.73;;;17.70;84.20;;;;;;4181480;28;20028;-61
2022/05/23 03:34:24;;;;;;;1.35;0.60;;;18.00;83.40;;;;;;4179741;28;20090;-61
2022/05/23 03:36:26;;;;;;;2.88;0.70;;;18.30;82.90;;;;;;4175704;28;20435;-62
2022/05/23 03:38:27;;;;;;;1.50;0.60;;;18.60;81.80;;;;;;4176887;28;20106;-62
2022/05/23 03:40:28;;;;;;;2.35;0.40;;;18.70;81.30;;;;;;4172834;28;20041;-62
2022/05/23 03:42:29;;;;;;;0.75;0.40;;;18.80;81.00;;;;;;4178568;28;20070;-62
2022/05/23 03:44:31;;;;;;;0.40;0.40;;;18.80;80.40;;;;;;4180904;28;20028;-64
2022/05/23 03:46:32;;;;;;;0.38;0.22;;;18.90;79.70;;;;;;4176472;28;20053;-62
2022/05/23 03:48:33;;;;;;;1.85;0.50;;;19.00;78.80;;;;;;4184044;28;20033;-62
2022/05/23 03:50:35;;;;;;;2.47;0.52;;;19.00;78.60;;;;;;4174451;28;20744;-62
2022/05/23 03:52:37;;;;;;;1.02;0.40;;;19.20;78.40;;;;;;4181529;28;20780;-62
2022/05/23 03:54:39;;;;;;;0.60;0.20;;;19.60;77.70;;;;;;4190914;28;20036;-62
2022/05/23 03:56:40;;;;;;;0.82;0.40;;;19.80;77.30;;;;;;4175900;28;20574;-62
2022/05/23 03:58:41;;;;;;;1.40;0.30;;;20.40;76.80;;;;;;4177071;28;20041;-63
2022/05/23 04:00:46;;;;;;;4.50;0.80;;;20.70;75.50;;;;;;4171694;28;20033;-62
2022/05/23 04:02:47;;;;;;;4.55;0.40;;;20.70;75.10;;;;;;4174337;28;20114;-62
2022/05/23 04:04:49;;;;;;;0.95;0.30;;;20.60;74.80;;;;;;4172867;28;20033;-63
2022/05/23 04:06:50;;;;;;;1.17;0.50;;;20.60;74.90;;;;;;4173614;28;20033;-62
2022/05/23 04:08:51;;;;;;;1.92;0.80;;;20.90;74.80;;;;;;4173266;28;20087;-62
2022/05/23 04:10:52;;;;;;;1.70;0.60;;;21.10;74.30;;;;;;4172928;28;20095;-63
2022/05/23 04:12:53;;;;;;;0.90;0.35;;;21.10;74.10;;;;;;4176689;28;20488;-61
2022/05/23 04:14:54;;;;;;;3.80;0.55;;;20.90;74.00;;;;;;4188990;28;20098;-61
2022/05/23 04:16:56;;;;;;;4.10;0.70;;;21.10;73.60;;;;;;4190132;28;20102;-61
2022/05/23 04:18:57;;;;;;;1.92;0.45;;;20.90;73.20;;;;;;4189032;28;20082;-63
2022/05/23 04:20:59;;;;;;;3.53;1.42;;;20.80;73.10;;;;;;4190199;28;20025;-61
2022/05/23 04:23:00;;;;;;;3.22;0.60;;;20.60;72.90;;;;;;4188206;28;20024;-61
2022/05/23 04:25:02;;;;;;;3.22;0.50;;;20.60;73.10;;;;;;4177068;28;20534;-62
2022/05/23 04:27:04;;;;;;;0.85;0.50;;;20.60;72.90;;;;;;4170640;28;20049;-62
2022/05/23 04:29:08;;;;;;;1.23;0.30;;;20.40;73.00;;;;;;4177141;28;20102;-61
2022/05/23 04:31:10;;;;;;;1.00;0.40;;;20.20;73.30;;;;;;4186880;28;20049;-61
2022/05/23 04:35:32;;;;;;;3.80;0.55;;;20.30;73.70;;;;;;4178612;28;20040;-62
2022/05/23 04:37:33;;;;;;;1.95;0.35;;;20.40;73.40;;;;;;4174300;28;20029;-62
2022/05/23 04:39:34;;;;;;;1.95;0.60;;;20.00;73.50;;;;;;4171874;28;20049;-61
2022/05/23 04:41:36;;;;;;;1.52;0.60;;;19.60;73.90;;;;;;4173052;28;20103;-62
2022/05/23 04:43:37;;;;;;;2.60;0.68;;;19.40;74.50;;;;;;4172186;28;20083;-61
2022/05/23 04:45:38;;;;;;;1.05;0.60;;;19.50;74.90;;;;;;4174655;28;20536;-61
2022/05/23 04:50:03;;;;;;;1.27;0.32;;;19.70;74.50;;;;;;4172766;28;20045;-61
2022/05/23 04:52:04;;;;;;;2.50;0.80;;;19.80;74.40;;;;;;4177880;28;20041;-62
2022/05/23 04:54:06;;;;;;;4.68;0.57;;;20.30;74.10;;;;;;4186299;28;20036;-61
2022/05/23 04:56:08;;;;;;;2.58;0.65;;;20.70;73.70;;;;;;4187921;28;20040;-60
2022/05/23 04:58:10;;;;;;;1.35;0.60;;;20.80;73.10;;;;;;4188583;28;20358;-61
2022/05/23 05:00:17;;;;;;;2.45;0.90;;;20.50;73.20;;;;;;4189104;28;20094;-60
2022/05/23 05:02:18;;;;;;;1.27;0.60;;;20.20;73.70;;;;;;4188295;28;20020;-63
2022/05/23 05:04:19;;;;;;;2.25;0.50;;;20.00;73.90;;;;;;4188437;28;20085;-62
2022/05/23 05:06:24;;;;;;;1.42;0.55;;;20.00;74.00;;;;;;4187577;28;20040;-61
2022/05/23 05:08:25;;;;;;;1.95;0.40;;;20.10;74.00;;;;;;4189749;28;20145;-61
2022/05/23 05:10:27;;;;;;;1.85;0.50;;;20.00;74.00;;;;;;4187657;28;20044;-61
2022/05/23 05:12:28;;;;;;;2.05;0.80;;;20.40;73.50;;;;;;4188950;28;20070;-61
2022/05/23 05:14:30;;;;;;;7.88;2.78;;;20.60;73.00;;;;;;4188242;28;20548;-62
2022/05/23 05:16:32;;;;;;;3.55;1.40;;;20.90;73.00;;;;;;4189447;28;20025;-62
2022/05/23 05:18:34;;;;;;;3.70;1.20;;;21.00;72.10;;;;;;4188172;28;20040;-61
2022/05/23 05:20:35;;;;;;;4.07;1.00;;;21.40;71.40;;;;;;4189424;28;20055;-61
2022/05/23 05:22:36;;;;;;;5.07;1.80;;;21.50;71.60;;;;;;4188282;28;20090;-61
2022/05/23 05:24:37;;;;;;;2.08;0.80;;;21.80;71.20;;;;;;4188706;28;20485;-62
2022/05/23 05:26:39;;;;;;;0.95;0.50;;;21.80;70.60;;;;;;4188220;28;20105;-62
2022/05/23 05:28:40;;;;;;;1.05;0.95;;;21.80;70.70;;;;;;4188988;28;20040;-62
2022/05/23 05:30:59;;;;;;;1.70;0.60;;;22.00;70.50;;;;;;4188932;28;20865;-61
2022/05/23 05:33:10;;;;;;;2.20;0.80;;;22.00;69.80;;;;;;4188434;28;20114;-61
2022/05/23 05:35:22;;;;;;;1.85;0.60;;;22.60;68.80;;;;;;4188862;28;20032;-61
2022/05/23 05:37:36;;;;;;;2.33;0.50;;;22.90;68.40;;;;;;4188469;28;20436;-62
2022/05/23 05:39:38;;;;;;;2.58;0.50;;;22.70;67.60;;;;;;4188389;28;20101;-60
2022/05/23 05:41:45;;;;;;;5.35;1.33;;;22.60;68.40;;;;;;4188273;28;20070;-61
2022/05/23 05:43:57;;;;;;;7.72;1.90;;;22.60;68.50;;;;;;4188995;28;20062;-61
2022/05/23 05:46:13;;;;;;;2.20;0.60;;;21.90;67.50;;;;;;4187737;28;20025;-62
2022/05/23 05:48:14;;;;;;;4.35;0.90;;;21.30;69.40;;;;;;4188760;28;20020;-61
2022/05/23 05:50:24;;;;;;;3.95;0.80;;;21.40;69.80;;;;;;4188114;28;20052;-62
2022/05/23 05:52:28;;;;;;;3.35;1.25;;;21.40;69.60;;;;;;4188707;28;20020;-61
2022/05/23 05:54:30;;;;;;;2.38;0.45;;;21.00;69.80;;;;;;4187713;28;20045;-62
2022/05/23 05:56:32;;;;;;;4.97;0.80;;;20.90;70.10;;;;;;4188772;28;20048;-61
2022/05/23 05:58:33;;;;;;;1.85;0.77;;;20.80;70.10;;;;;;4187928;28;20056;-62
2022/05/23 06:00:34;;;;;;;3.30;0.68;;;20.60;70.50;;;;;;4189257;28;20430;-62
2022/05/23 06:02:36;;;;;;;3.03;0.88;;;20.30;70.90;;;;;;4187981;28;20048;-62
2022/05/23 06:04:38;;;;;;;3.28;0.85;;;20.30;71.60;;;;;;4188847;28;20044;-62
2022/05/23 06:11:27;;;;;;;2.08;0.65;;;20.60;71.50;;;;;;4187630;28;20273;-61
2022/05/23 06:13:29;;;;;;;2.10;0.60;;;20.40;71.50;;;;;;4188717;28;20056;-61
2022/05/23 06:15:30;;;;;;;4.13;0.85;;;20.70;71.80;;;;;;4187771;28;20993;-61
2022/05/23 06:17:38;;;;;;;3.28;0.65;;;21.00;70.80;;;;;;4189420;28;20612;-61
2022/05/23 06:19:44;;;;;;;2.15;0.70;;;20.80;70.80;;;;;;4187153;28;20476;-62
2022/05/23 06:21:46;;;;;;;2.35;0.70;;;20.50;70.50;;;;;;4188725;28;20040;-62
2022/05/23 06:23:47;;;;;;;1.52;0.65;;;20.30;70.70;;;;;;4190470;28;20561;-60
2022/05/23 06:25:48;;;;;;;3.92;0.85;;;19.90;70.90;;;;;;4192055;28;20036;-60
2022/05/23 06:27:49;;;;;;;1.20;0.60;;;19.70;71.70;;;;;;4190750;28;20033;-61
2022/05/23 06:29:50;;;;;;;0.77;0.50;;;19.70;72.00;;;;;;4192311;28;20040;-61
2022/05/23 06:31:51;;;;;;;3.83;1.48;;;19.70;71.90;;;;;;4190506;28;20619;-62
2022/05/23 06:33:53;;;;;;;1.90;0.60;;;19.70;72.10;;;;;;4191613;28;20572;-62
2022/05/23 06:35:54;;;;;;;2.00;0.35;;;19.70;72.10;;;;;;4190742;28;20264;-61
2022/05/23 06:37:55;;;;;;;2.22;1.13;;;19.70;71.90;;;;;;4191251;28;20024;-61
2022/05/23 06:39:56;;;;;;;5.38;0.63;;;19.60;72.00;;;;;;4191566;28;20707;-61
2022/05/23 06:41:57;;;;;;;0.98;0.50;;;19.70;72.10;;;;;;4190508;28;20086;-61
2022/05/23 06:43:58;;;;;;;1.85;0.80;;;19.80;71.90;;;;;;4191608;28;20024;-62
2022/05/23 06:46:02;;;;;;;0.57;0.50;;;19.60;72.00;;;;;;4189883;28;20090;-60
2022/05/23 06:48:03;;;;;;;2.47;0.60;;;19.80;72.50;;;;;;4191050;28;20094;-61
2022/05/23 06:50:05;;;;;;;1.30;0.50;;;20.00;72.30;;;;;;4190190;28;20060;-62
2022/05/23 06:52:07;;;;;;;4.15;0.93;;;20.20;72.60;;;;;;4191853;28;20032;-61
2022/05/23 06:54:09;;;;;;;3.17;0.52;;;20.20;72.40;;;;;;4190563;28;20059;-62
2022/05/23 06:56:10;;;;;;;2.22;0.82;;;20.40;72.00;;;;;;4192042;28;20629;-61
2022/05/23 06:58:12;;;;;;;0.95;0.30;;;20.20;71.50;;;;;;4190355;28;20559;-62
2022/05/23 07:00:13;;;;;;;6.95;0.50;;;20.20;71.70;;;;;;4191783;28;20059;-61
2022/05/23 07:02:15;;;;;;;4.93;0.80;;;20.20;71.90;;;;;;4190506;28;20114;-62
2022/05/23 07:04:16;;;;;;;2.08;0.77;;;20.40;71.70;;;;;;4191588;28;20082;-62
2022/05/23 07:13:16;;;;;;;3.28;0.47;;;19.80;70.30;;;;;;4190931;28;20350;-61
2022/05/23 07:15:17;;;;;;;2.80;0.38;;;19.80;71.40;;;;;;4190095;28;20147;-61
2022/05/23 07:17:18;;;;;;;1.70;0.40;;;19.90;71.10;;;;;;4191086;28;20461;-62
2022/05/23 07:19:20;;;;;;;4.70;1.05;;;19.90;69.70;;;;;;4189737;28;20025;-61
2022/05/23 07:21:21;;;;;;;23.08;1.52;;;19.90;70.30;;;;;;4190233;28;20041;-61
2022/05/23 07:23:22;;;;;;;1.08;0.28;;;20.00;70.30;;;;;;4190383;28;20040;-61
2022/05/23 07:25:23;;;;;;;2.15;0.75;;;20.00;69.80;;;;;;4190102;28;20036;-60
2022/05/23 07:27:26;;;;;;;1.63;0.47;;;19.90;70.10;;;;;;4190415;28;20037;-61
2022/05/23 07:29:28;;;;;;;5.43;1.35;;;20.00;70.50;;;;;;4189922;28;20819;-61
2022/05/23 07:31:29;;;;;;;66.40;26.13;;;19.80;70.90;;;;;;4190334;28;20045;-61
2022/05/23 07:33:31;;;;;;;24.08;9.73;;;19.80;70.60;;;;;;4189656;28;20110;-61
2022/05/23 07:35:32;;;;;;;13.18;4.07;;;19.70;70.30;;;;;;4190579;28;20831;-61
2022/05/23 07:37:33;;;;;;;6.43;1.67;;;19.50;70.40;;;;;;4188199;28;20040;-61
2022/05/23 07:39:39;;;;;;;5.18;2.92;;;19.40;70.80;;;;;;4190868;28;20480;-61
2022/05/23 07:41:42;;;;;;;10.43;3.03;;;19.50;70.80;;;;;;4189716;28;20270;-62
2022/05/23 07:43:43;;;;;;;5.38;1.75;;;19.40;70.70;;;;;;4191017;28;20467;-61
2022/05/23 07:45:45;;;;;;;2.65;0.95;;;19.40;70.50;;;;;;4189223;28;20040;-60
2022/05/23 07:47:46;;;;;;;1.83;0.98;;;19.30;70.30;;;;;;4190485;28;20154;-61
2022/05/23 07:49:50;;;;;;;1.52;0.30;;;19.40;69.90;;;;;;4189659;28;20081;-61
2022/05/23 07:51:53;;;;;;;1.55;0.68;;;19.50;69.60;;;;;;4190898;28;20534;-62
2022/05/23 08:00:53;;;;;;;2.83;0.20;;;19.90;69.50;;;;;;4190788;28;20044;-62
2022/05/23 08:02:54;;;;;;;1.95;0.43;;;20.00;68.90;;;;;;4188915;28;20471;-61
2022/05/23 08:04:55;;;;;;;0.52;0.40;;;20.00;68.90;;;;;;4190539;28;20024;-61
2022/05/23 08:06:57;;;;;;;2.20;0.80;;;19.90;68.80;;;;;;4188897;28;20078;-60
2022/05/23 08:08:58;;;;;;;2.47;0.60;;;19.70;69.60;;;;;;4189664;28;20044;-60
2022/05/23 08:11:00;;;;;;;4.28;0.68;;;19.90;70.10;;;;;;4189345;28;20028;-60
2022/05/23 08:13:08;;;;;;;1.17;0.50;;;19.60;70.20;;;;;;4189495;28;20045;-61
2022/05/23 08:15:10;;;;;;;1.95;0.70;;;19.80;70.30;;;;;;4189696;28;20090;-61
2022/05/23 08:17:11;;;;;;;1.50;0.57;;;19.80;70.40;;;;;;4188749;28;20066;-63
2022/05/23 08:19:12;;;;;;;3.85;0.75;;;20.00;70.40;;;;;;4189921;28;20029;-61
2022/05/23 08:21:15;;;;;;;2.97;0.40;;;20.00;70.00;;;;;;4188867;28;20029;-60
2022/05/23 08:23:17;;;;;;;4.30;1.50;;;20.00;68.70;;;;;;4190477;28;20086;-61
2022/05/23 08:25:18;;;;;;;1.90;0.30;;;20.00;69.00;;;;;;4188813;28;20074;-61
2022/05/23 08:27:20;;;;;;;0.73;0.45;;;20.30;68.60;;;;;;4189829;28;20458;-61
2022/05/23 08:29:22;;;;;;;3.20;0.40;;;20.00;68.70;;;;;;4188649;28;20036;-63
2022/05/23 08:31:23;;;;;;;2.55;0.60;;;19.90;69.40;;;;;;4189949;28;20480;-62
2022/05/23 08:33:24;;;;;;;2.17;0.30;;;19.80;67.80;;;;;;4188103;28;20036;-61
2022/05/23 08:35:26;;;;;;;1.55;0.30;;;19.80;68.50;;;;;;4190024;28;20459;-63
2022/05/23 08:37:27;;;;;;;3.08;0.55;;;19.50;68.60;;;;;;4188688;28;20024;-61
2022/05/23 08:39:28;;;;;;;2.63;0.40;;;19.20;68.90;;;;;;4189402;28;20106;-61
2022/05/23 08:41:35;;;;;;;6.55;0.88;;;19.10;68.90;;;;;;4188303;28;20059;-60
2022/05/23 08:44:05;;;;;;;4.88;0.35;;;18.90;69.70;;;;;;4189089;28;20610;-61
2022/05/23 08:46:07;;;;;;;3.88;0.73;;;19.10;70.10;;;;;;4187737;28;20056;-60
2022/05/23 08:48:39;;;;;;;4.65;0.80;;;19.50;70.40;;;;;;4189680;28;20461;-61
2022/05/23 08:50:49;;;;;;;2.72;0.70;;;19.80;68.20;;;;;;4187924;28;20052;-62
2022/05/23 08:52:59;;;;;;;2.55;1.27;;;20.00;68.20;;;;;;4189540;28;20028;-61
2022/05/23 08:55:06;;;;;;;2.92;0.82;;;20.30;67.30;;;;;;4188368;28;20070;-61
2022/05/23 08:57:37;;;;;;;2.45;1.13;;;19.90;68.30;;;;;;4189591;28;20319;-61
2022/05/23 08:59:43;;;;;;;1.17;0.60;;;19.40;69.40;;;;;;4188618;28;20037;-62
2022/05/23 09:01:54;;;;;;;1.35;0.50;;;19.40;70.20;;;;;;4190091;28;20071;-61
2022/05/23 09:04:08;;;;;;;4.32;0.57;;;19.40;69.90;;;;;;4188244;28;20045;-61
2022/05/23 09:06:20;;;;;;;8.52;0.85;;;19.00;70.00;;;;;;4189319;28;20079;-63
2022/05/23 09:08:24;;;;;;;3.72;0.38;;;18.30;71.50;;;;;;4188063;28;20032;-61
2022/05/23 09:10:34;;;;;;;1.20;0.73;;;18.40;71.60;;;;;;4189375;28;20070;-61
2022/05/23 09:12:35;;;;;;;0.82;0.35;;;18.70;70.60;;;;;;4187678;28;20106;-60
2022/05/23 09:14:38;;;;;;;2.10;0.70;;;18.90;70.60;;;;;;4189427;28;20040;-61
2022/05/23 09:16:41;;;;;;;6.20;0.88;;;18.90;70.80;;;;;;4187388;28;20044;-61
2022/05/23 09:18:59;;;;;;;3.25;0.50;;;19.10;70.80;;;;;;4188901;28;20051;-61
2022/05/23 09:21:04;;;;;;;3.38;0.70;;;19.20;70.60;;;;;;4187464;28;20101;-62
2022/05/23 09:23:14;;;;;;;4.63;0.30;;;19.20;70.80;;;;;;4186592;28;20487;-61
2022/05/23 09:25:19;;;;;;;1.77;0.55;;;18.70;70.70;;;;;;4188060;28;20020;-60
2022/05/23 09:27:31;;;;;;;1.95;0.57;;;18.70;71.30;;;;;;4189264;28;20025;-61
2022/05/23 09:29:32;;;;;;;3.35;0.40;;;18.70;71.00;;;;;;4188335;28;20062;-61
2022/05/23 09:31:48;;;;;;;1.90;0.47;;;18.80;71.00;;;;;;4189088;28;20090;-61
2022/05/23 09:33:52;;;;;;;1.65;0.57;;;18.70;70.40;;;;;;4187598;28;20045;-61
2022/05/23 09:36:08;;;;;;;0.70;0.55;;;18.50;69.40;;;;;;4189200;28;20823;-61
2022/05/23 09:38:20;;;;;;;4.38;0.55;;;18.30;69.80;;;;;;4188115;28;20070;-61
2022/05/23 09:40:32;;;;;;;3.22;0.50;;;18.40;70.70;;;;;;4189222;28;20802;-61
2022/05/23 09:49:46;;;;;;;3.85;0.47;;;19.20;69.40;;;;;;4189422;28;20496;-61
2022/05/23 09:51:49;;;;;;;0.73;0.30;;;19.40;68.30;;;;;;4187982;28;20170;-61
2022/05/23 09:53:52;;;;;;;3.28;0.50;;;19.30;68.40;;;;;;4189124;28;20090;-61
2022/05/23 09:55:54;;;;;;;3.22;0.50;;;19.20;68.70;;;;;;4187498;28;20028;-60
2022/05/23 09:58:11;;;;;;;2.47;0.50;;;19.10;69.20;;;;;;4191903;28;20114;-61
2022/05/23 10:00:20;;;;;;;1.50;0.40;;;19.00;68.80;;;;;;4191259;28;20558;-62
2022/05/23 10:02:47;;;;;;;2.35;0.65;;;19.00;69.90;;;;;;4192173;28;20052;-61
2022/05/23 10:04:49;;;;;;;2.65;0.75;;;19.00;69.30;;;;;;4191265;28;20048;-60
2022/05/23 10:06:50;;;;;;;1.45;0.70;;;19.10;70.10;;;;;;4192310;28;20086;-61
2022/05/23 10:08:53;;;;;;;0.93;0.28;;;19.20;69.60;;;;;;4190938;28;20033;-61
2022/05/23 10:11:01;;;;;;;2.10;0.60;;;19.30;69.70;;;;;;4190570;28;20052;-60
2022/05/23 10:13:16;;;;;;;0.25;0.22;;;19.20;68.60;;;;;;4189531;28;20052;-61
2022/05/23 10:15:24;;;;;;;3.67;0.77;;;18.80;68.90;;;;;;4191048;28;20314;-61
2022/05/23 10:17:34;;;;;;;6.28;0.73;;;18.70;69.10;;;;;;4189277;28;20048;-59
2022/05/23 10:19:38;;;;;;;1.58;0.80;;;18.80;69.70;;;;;;4190613;28;20036;-62
2022/05/23 10:21:44;;;;;;;2.50;0.40;;;19.10;69.30;;;;;;4189419;28;20025;-62
2022/05/23 10:24:03;;;;;;;4.65;0.52;;;19.20;68.90;;;;;;4190589;28;20126;-62
2022/05/23 10:26:18;;;;;;;1.60;0.40;;;19.20;68.40;;;;;;4188751;28;20052;-61
2022/05/23 10:28:30;;;;;;;1.15;0.50;;;19.10;68.90;;;;;;4190755;28;20498;-61
2022/05/23 10:30:34;;;;;;;5.25;1.13;;;19.20;68.90;;;;;;4189499;28;20101;-62
2022/05/23 10:32:48;;;;;;;1.90;0.52;;;19.20;68.30;;;;;;4190815;28;20040;-61
2022/05/23 10:34:54;;;;;;;2.42;0.50;;;19.10;66.90;;;;;;4189743;28;20423;-61
2022/05/23 10:36:57;;;;;;;1.73;0.50;;;18.80;68.40;;;;;;4190946;28;20086;-61
2022/05/23 10:44:14;;;;;;;0.68;0.40;;;18.60;69.90;;;;;;4189435;28;20497;-62
2022/05/23 10:46:16;;;;;;;1.58;0.43;;;18.60;69.20;;;;;;4190714;28;20044;-62
2022/05/23 10:48:55;;;;;;;3.15;0.80;;;18.80;69.20;;;;;;4189034;28;20532;-61
2022/05/23 10:51:08;;;;;;;0.30;0.10;;;18.70;69.50;;;;;;4189857;28;20033;-61
2022/05/23 10:53:44;;;;;;;0.65;0.38;;;18.70;70.00;;;;;;4189748;28;20028;-61
2022/05/23 10:56:04;;;;;;;2.42;0.70;;;18.70;70.10;;;;;;4189545;28;20044;-61
2022/05/23 10:58:14;;;;;;;5.18;0.68;;;18.80;70.30;;;;;;4190360;28;20089;-62
2022/05/23 11:00:21;;;;;;;4.07;0.52;;;19.00;69.10;;;;;;4189813;28;20037;-60
2022/05/23 11:02:37;;;;;;;2.63;0.65;;;19.20;68.80;;;;;;4190509;28;20899;-61
2022/05/23 11:04:52;;;;;;;2.95;0.57;;;19.30;68.70;;;;;;4189490;28;20102;-60
2022/05/23 11:07:33;;;;;;;0.93;0.57;;;19.40;68.30;;;;;;4190618;28;20484;-61
2022/05/23 11:10:20;;;;;;;4.20;0.82;;;19.50;68.90;;;;;;4173005;28;20037;-61
2022/05/23 11:12:33;;;;;;;3.38;0.60;;;19.50;68.10;;;;;;4142341;28;1130948;-62
2022/05/23 11:15:06;;;;;;;2.55;0.50;;;19.80;68.00;;;;;;4190181;28;20036;-62
2022/05/23 11:17:22;;;;;;;2.50;0.43;;;19.80;67.50;;;;;;4184702;28;20032;-62
2022/05/23 11:19:39;;;;;;;0.98;0.50;;;19.90;66.90;;;;;;4190712;28;20447;-62
2022/05/23 11:21:58;;;;;;;3.20;0.90;;;19.90;67.20;;;;;;4190150;28;20033;-62
2022/05/23 11:24:10;;;;;;;1.80;0.70;;;20.00;67.20;;;;;;4190846;28;20078;-61
2022/05/23 11:26:23;;;;;;;1.27;0.70;;;20.20;67.00;;;;;;4189742;28;20428;-61
2022/05/23 11:34:13;;;;;;;1.17;0.52;;;20.30;67.40;;;;;;4191262;28;20068;-62
2022/05/23 11:36:24;;;;;;;4.32;0.88;;;20.00;67.00;;;;;;4189312;28;20063;-62
2022/05/23 11:38:27;;;;;;;1.00;0.68;;;19.50;66.70;;;;;;4190556;28;20036;-61
2022/05/23 11:40:28;;;;;;;1.52;0.55;;;19.40;67.60;;;;;;4189008;28;20040;-61
2022/05/23 11:42:42;;;;;;;1.02;0.50;;;19.50;67.80;;;;;;4190780;28;20567;-62
2022/05/23 11:44:44;;;;;;;1.33;0.52;;;19.80;67.70;;;;;;4189813;28;20492;-62
2022/05/23 11:47:25;;;;;;;2.22;0.60;;;19.90;67.10;;;;;;4190752;28;20016;-61